sensor_id;sensor_type;location;lat;lon;timestamp;P1;durP1;ratioP1;P2;durP2;ratioP2
75898;SDS011;64576;50.460;4.866;2023-01-06T00:00:39;9.50;;;3.83;;
75898;SDS011;64576;50.460;4.866;2023-01-06T00:03:06;10.85;;;4.00;;
75898;SDS011;64576;50.460;4.866;2023-01-06T00:05:32;9.82;;;4.45;;
75898;SDS011;64576;50.460;4.866;2023-01-06T00:07:58;10.40;;;3.78;;
75898;SDS011;64576;50.460;4.866;2023-01-06T00:10:24;9.00;;;4.95;;
75898;SDS011;64576;50.460;4.866;2023-01-06T00:12:49;7.43;;;4.57;;
75898;SDS011;64576;50.460;4.866;2023-01-06T00:15:15;11.32;;;4.43;;
75898;SDS011;64576;50.460;4.866;2023-01-06T00:17:42;9.70;;;3.83;;
75898;SDS011;64576;50.460;4.866;2023-01-06T00:20:08;8.20;;;4.78;;
75898;SDS011;64576;50.460;4.866;2023-01-06T00:22:34;10.13;;;5.05;;
75898;SDS011;64576;50.460;4.866;2023-01-06T00:25:00;9.88;;;4.05;;
75898;SDS011;64576;50.460;4.866;2023-01-06T00:27:25;13.13;;;3.83;;
75898;SDS011;64576;50.460;4.866;2023-01-06T00:29:50;9.98;;;5.13;;
75898;SDS011;64576;50.460;4.866;2023-01-06T00:32:16;8.18;;;4.07;;
75898;SDS011;64576;50.460;4.866;2023-01-06T00:34:42;9.05;;;4.10;;
75898;SDS011;64576;50.460;4.866;2023-01-06T00:37:08;11.32;;;5.78;;
75898;SDS011;64576;50.460;4.866;2023-01-06T00:39:34;11.38;;;4.82;;
75898;SDS011;64576;50.460;4.866;2023-01-06T00:41:59;14.50;;;5.13;;
75898;SDS011;64576;50.460;4.866;2023-01-06T00:44:37;10.98;;;4.88;;
75898;SDS011;64576;50.460;4.866;2023-01-06T00:47:04;9.63;;;4.13;;
75898;SDS011;64576;50.460;4.866;2023-01-06T00:49:31;13.20;;;4.78;;
75898;SDS011;64576;50.460;4.866;2023-01-06T00:51:57;14.75;;;5.65;;
75898;SDS011;64576;50.460;4.866;2023-01-06T00:54:23;12.15;;;4.43;;
75898;SDS011;64576;50.460;4.866;2023-01-06T00:56:49;10.77;;;4.53;;
75898;SDS011;64576;50.460;4.866;2023-01-06T00:59:17;10.10;;;4.15;;
75898;SDS011;64576;50.460;4.866;2023-01-06T01:01:44;16.85;;;5.47;;
75898;SDS011;64576;50.460;4.866;2023-01-06T01:04:10;10.18;;;4.70;;
75898;SDS011;64576;50.460;4.866;2023-01-06T01:06:36;11.68;;;4.38;;
75898;SDS011;64576;50.460;4.866;2023-01-06T01:09:03;12.27;;;4.88;;
75898;SDS011;64576;50.460;4.866;2023-01-06T01:11:29;9.75;;;4.53;;
75898;SDS011;64576;50.460;4.866;2023-01-06T01:14:15;16.90;;;4.47;;
75898;SDS011;64576;50.460;4.866;2023-01-06T01:16:41;11.30;;;6.65;;
75898;SDS011;64576;50.460;4.866;2023-01-06T01:19:07;11.30;;;4.88;;
75898;SDS011;64576;50.460;4.866;2023-01-06T01:21:33;8.52;;;3.80;;
75898;SDS011;64576;50.460;4.866;2023-01-06T01:23:58;11.20;;;4.45;;
75898;SDS011;64576;50.460;4.866;2023-01-06T01:26:23;8.93;;;4.07;;
75898;SDS011;64576;50.460;4.866;2023-01-06T01:28:49;8.60;;;3.85;;
75898;SDS011;64576;50.460;4.866;2023-01-06T01:31:14;16.30;;;4.78;;
75898;SDS011;64576;50.460;4.866;2023-01-06T01:33:40;7.40;;;3.58;;
75898;SDS011;64576;50.460;4.866;2023-01-06T01:36:11;11.68;;;4.95;;
75898;SDS011;64576;50.460;4.866;2023-01-06T01:38:38;7.50;;;3.60;;
75898;SDS011;64576;50.460;4.866;2023-01-06T01:41:04;8.15;;;3.80;;
75898;SDS011;64576;50.460;4.866;2023-01-06T01:43:58;8.35;;;4.05;;
75898;SDS011;64576;50.460;4.866;2023-01-06T01:48:56;7.65;;;3.85;;
75898;SDS011;64576;50.460;4.866;2023-01-06T01:51:27;8.75;;;4.35;;
75898;SDS011;64576;50.460;4.866;2023-01-06T01:53:57;9.50;;;4.45;;
75898;SDS011;64576;50.460;4.866;2023-01-06T01:56:25;9.65;;;4.10;;
75898;SDS011;64576;50.460;4.866;2023-01-06T01:59:07;13.57;;;4.50;;
75898;SDS011;64576;50.460;4.866;2023-01-06T02:01:36;9.13;;;4.60;;
75898;SDS011;64576;50.460;4.866;2023-01-06T02:04:01;12.15;;;4.15;;
75898;SDS011;64576;50.460;4.866;2023-01-06T02:06:27;11.52;;;4.50;;
75898;SDS011;64576;50.460;4.866;2023-01-06T02:08:57;10.85;;;3.72;;
75898;SDS011;64576;50.460;4.866;2023-01-06T02:11:30;6.68;;;3.45;;
75898;SDS011;64576;50.460;4.866;2023-01-06T02:14:16;11.02;;;3.92;;
75898;SDS011;64576;50.460;4.866;2023-01-06T02:16:49;6.68;;;2.95;;
75898;SDS011;64576;50.460;4.866;2023-01-06T02:19:28;11.35;;;4.35;;
75898;SDS011;64576;50.460;4.866;2023-01-06T02:27:46;9.48;;;3.83;;
75898;SDS011;64576;50.460;4.866;2023-01-06T02:33:40;7.07;;;3.05;;
75898;SDS011;64576;50.460;4.866;2023-01-06T02:39:18;9.82;;;2.80;;
75898;SDS011;64576;50.460;4.866;2023-01-06T02:42:16;7.82;;;3.33;;
75898;SDS011;64576;50.460;4.866;2023-01-06T02:44:58;9.00;;;3.33;;
75898;SDS011;64576;50.460;4.866;2023-01-06T02:47:53;10.82;;;3.38;;
75898;SDS011;64576;50.460;4.866;2023-01-06T02:50:22;8.43;;;3.05;;
75898;SDS011;64576;50.460;4.866;2023-01-06T02:52:56;9.65;;;3.00;;
75898;SDS011;64576;50.460;4.866;2023-01-06T02:55:28;9.85;;;3.13;;
75898;SDS011;64576;50.460;4.866;2023-01-06T03:00:38;5.90;;;2.72;;
75898;SDS011;64576;50.460;4.866;2023-01-06T03:03:15;5.75;;;2.60;;
75898;SDS011;64576;50.460;4.866;2023-01-06T03:05:46;8.85;;;2.85;;
75898;SDS011;64576;50.460;4.866;2023-01-06T03:08:23;6.75;;;2.83;;
75898;SDS011;64576;50.460;4.866;2023-01-06T03:10:51;8.25;;;2.65;;
75898;SDS011;64576;50.460;4.866;2023-01-06T03:13:22;6.60;;;2.90;;
75898;SDS011;64576;50.460;4.866;2023-01-06T03:15:54;12.60;;;3.15;;
75898;SDS011;64576;50.460;4.866;2023-01-06T03:18:19;8.40;;;2.45;;
75898;SDS011;64576;50.460;4.866;2023-01-06T03:20:45;9.57;;;3.28;;
75898;SDS011;64576;50.460;4.866;2023-01-06T03:23:13;6.95;;;2.60;;
75898;SDS011;64576;50.460;4.866;2023-01-06T03:25:38;8.88;;;3.00;;
75898;SDS011;64576;50.460;4.866;2023-01-06T03:28:04;8.23;;;2.72;;
75898;SDS011;64576;50.460;4.866;2023-01-06T03:30:32;11.18;;;3.05;;
75898;SDS011;64576;50.460;4.866;2023-01-06T03:33:07;8.65;;;3.08;;
75898;SDS011;64576;50.460;4.866;2023-01-06T03:35:46;5.63;;;2.45;;
75898;SDS011;64576;50.460;4.866;2023-01-06T03:40:58;8.23;;;3.08;;
75898;SDS011;64576;50.460;4.866;2023-01-06T03:43:28;13.55;;;2.95;;
75898;SDS011;64576;50.460;4.866;2023-01-06T03:48:57;7.40;;;2.33;;
75898;SDS011;64576;50.460;4.866;2023-01-06T03:54:30;7.10;;;2.70;;
75898;SDS011;64576;50.460;4.866;2023-01-06T03:57:41;6.25;;;2.67;;
75898;SDS011;64576;50.460;4.866;2023-01-06T04:00:23;3.80;;;2.05;;
75898;SDS011;64576;50.460;4.866;2023-01-06T04:02:52;5.45;;;2.17;;
75898;SDS011;64576;50.460;4.866;2023-01-06T04:05:18;5.97;;;2.75;;
75898;SDS011;64576;50.460;4.866;2023-01-06T04:07:46;4.53;;;2.00;;
75898;SDS011;64576;50.460;4.866;2023-01-06T04:10:12;5.32;;;2.00;;
75898;SDS011;64576;50.460;4.866;2023-01-06T04:12:39;7.97;;;2.58;;
75898;SDS011;64576;50.460;4.866;2023-01-06T04:15:12;4.93;;;2.15;;
75898;SDS011;64576;50.460;4.866;2023-01-06T04:17:40;4.53;;;1.70;;
75898;SDS011;64576;50.460;4.866;2023-01-06T04:20:07;6.47;;;2.47;;
75898;SDS011;64576;50.460;4.866;2023-01-06T04:22:34;5.32;;;1.80;;
75898;SDS011;64576;50.460;4.866;2023-01-06T04:25:00;3.58;;;2.17;;
75898;SDS011;64576;50.460;4.866;2023-01-06T04:27:25;5.22;;;2.45;;
75898;SDS011;64576;50.460;4.866;2023-01-06T04:29:51;5.88;;;2.47;;
75898;SDS011;64576;50.460;4.866;2023-01-06T04:32:16;6.13;;;2.47;;
75898;SDS011;64576;50.460;4.866;2023-01-06T04:34:42;7.45;;;2.55;;
75898;SDS011;64576;50.460;4.866;2023-01-06T04:37:07;7.32;;;2.60;;
75898;SDS011;64576;50.460;4.866;2023-01-06T04:39:32;8.40;;;3.35;;
75898;SDS011;64576;50.460;4.866;2023-01-06T04:41:58;6.88;;;2.65;;
75898;SDS011;64576;50.460;4.866;2023-01-06T04:44:23;8.00;;;2.83;;
75898;SDS011;64576;50.460;4.866;2023-01-06T04:46:49;5.63;;;2.97;;
75898;SDS011;64576;50.460;4.866;2023-01-06T04:49:14;7.13;;;2.80;;
75898;SDS011;64576;50.460;4.866;2023-01-06T04:51:40;5.75;;;2.75;;
75898;SDS011;64576;50.460;4.866;2023-01-06T04:54:05;9.18;;;3.10;;
75898;SDS011;64576;50.460;4.866;2023-01-06T04:56:30;6.50;;;3.00;;
75898;SDS011;64576;50.460;4.866;2023-01-06T04:58:56;10.25;;;3.05;;
75898;SDS011;64576;50.460;4.866;2023-01-06T05:01:23;8.88;;;3.20;;
75898;SDS011;64576;50.460;4.866;2023-01-06T05:03:49;4.93;;;2.60;;
75898;SDS011;64576;50.460;4.866;2023-01-06T05:06:15;8.27;;;3.15;;
75898;SDS011;64576;50.460;4.866;2023-01-06T05:08:40;6.57;;;3.22;;
75898;SDS011;64576;50.460;4.866;2023-01-06T05:11:08;7.80;;;2.90;;
75898;SDS011;64576;50.460;4.866;2023-01-06T05:13:39;7.78;;;2.58;;
75898;SDS011;64576;50.460;4.866;2023-01-06T05:16:06;5.07;;;2.58;;
75898;SDS011;64576;50.460;4.866;2023-01-06T05:18:36;4.53;;;2.65;;
75898;SDS011;64576;50.460;4.866;2023-01-06T05:21:02;5.55;;;3.00;;
75898;SDS011;64576;50.460;4.866;2023-01-06T05:23:27;9.07;;;3.00;;
75898;SDS011;64576;50.460;4.866;2023-01-06T05:25:53;5.45;;;2.67;;
75898;SDS011;64576;50.460;4.866;2023-01-06T05:28:18;6.30;;;2.40;;
75898;SDS011;64576;50.460;4.866;2023-01-06T05:30:44;4.53;;;2.63;;
75898;SDS011;64576;50.460;4.866;2023-01-06T05:33:09;5.07;;;3.20;;
75898;SDS011;64576;50.460;4.866;2023-01-06T05:35:35;4.85;;;2.42;;
75898;SDS011;64576;50.460;4.866;2023-01-06T05:38:00;5.53;;;2.47;;
75898;SDS011;64576;50.460;4.866;2023-01-06T05:40:26;5.18;;;2.92;;
75898;SDS011;64576;50.460;4.866;2023-01-06T05:42:53;5.43;;;2.80;;
75898;SDS011;64576;50.460;4.866;2023-01-06T05:45:19;6.57;;;3.35;;
75898;SDS011;64576;50.460;4.866;2023-01-06T05:47:45;5.80;;;3.30;;
75898;SDS011;64576;50.460;4.866;2023-01-06T05:50:11;7.07;;;3.05;;
75898;SDS011;64576;50.460;4.866;2023-01-06T05:52:37;5.00;;;2.45;;
75898;SDS011;64576;50.460;4.866;2023-01-06T05:55:02;7.72;;;2.55;;
75898;SDS011;64576;50.460;4.866;2023-01-06T05:57:31;6.72;;;2.80;;
75898;SDS011;64576;50.460;4.866;2023-01-06T05:59:56;5.85;;;2.55;;
75898;SDS011;64576;50.460;4.866;2023-01-06T06:02:22;8.50;;;2.90;;
75898;SDS011;64576;50.460;4.866;2023-01-06T06:04:47;4.45;;;2.60;;
75898;SDS011;64576;50.460;4.866;2023-01-06T06:07:12;6.15;;;2.80;;
75898;SDS011;64576;50.460;4.866;2023-01-06T06:09:38;7.18;;;2.75;;
75898;SDS011;64576;50.460;4.866;2023-01-06T06:12:03;4.40;;;2.17;;
75898;SDS011;64576;50.460;4.866;2023-01-06T06:14:29;5.38;;;2.63;;
75898;SDS011;64576;50.460;4.866;2023-01-06T06:16:54;4.78;;;2.10;;
75898;SDS011;64576;50.460;4.866;2023-01-06T06:19:20;3.28;;;1.55;;
75898;SDS011;64576;50.460;4.866;2023-01-06T06:21:45;4.70;;;1.98;;
75898;SDS011;64576;50.460;4.866;2023-01-06T06:24:10;4.63;;;1.58;;
75898;SDS011;64576;50.460;4.866;2023-01-06T06:26:36;3.70;;;2.08;;
75898;SDS011;64576;50.460;4.866;2023-01-06T06:29:03;4.55;;;2.05;;
75898;SDS011;64576;50.460;4.866;2023-01-06T06:31:29;3.88;;;1.95;;
75898;SDS011;64576;50.460;4.866;2023-01-06T06:33:56;4.28;;;1.80;;
75898;SDS011;64576;50.460;4.866;2023-01-06T06:36:23;5.40;;;1.55;;
75898;SDS011;64576;50.460;4.866;2023-01-06T06:38:49;3.92;;;1.63;;
75898;SDS011;64576;50.460;4.866;2023-01-06T06:41:16;5.90;;;2.30;;
75898;SDS011;64576;50.460;4.866;2023-01-06T06:43:42;3.85;;;1.50;;
75898;SDS011;64576;50.460;4.866;2023-01-06T06:46:08;4.00;;;1.58;;
75898;SDS011;64576;50.460;4.866;2023-01-06T06:48:34;4.63;;;1.73;;
75898;SDS011;64576;50.460;4.866;2023-01-06T06:51:03;2.53;;;1.48;;
75898;SDS011;64576;50.460;4.866;2023-01-06T06:53:31;3.40;;;1.63;;
75898;SDS011;64576;50.460;4.866;2023-01-06T06:55:57;5.88;;;1.48;;
75898;SDS011;64576;50.460;4.866;2023-01-06T06:58:23;5.07;;;1.88;;
75898;SDS011;64576;50.460;4.866;2023-01-06T07:00:49;3.50;;;1.70;;
75898;SDS011;64576;50.460;4.866;2023-01-06T07:03:15;3.65;;;1.83;;
75898;SDS011;64576;50.460;4.866;2023-01-06T07:05:44;4.85;;;1.92;;
75898;SDS011;64576;50.460;4.866;2023-01-06T07:08:11;8.85;;;2.25;;
75898;SDS011;64576;50.460;4.866;2023-01-06T07:10:37;3.92;;;1.90;;
75898;SDS011;64576;50.460;4.866;2023-01-06T07:13:03;4.60;;;2.20;;
75898;SDS011;64576;50.460;4.866;2023-01-06T07:15:28;6.72;;;2.72;;
75898;SDS011;64576;50.460;4.866;2023-01-06T07:17:54;7.00;;;2.78;;
75898;SDS011;64576;50.460;4.866;2023-01-06T07:20:19;5.10;;;2.42;;
75898;SDS011;64576;50.460;4.866;2023-01-06T07:22:44;5.15;;;2.40;;
75898;SDS011;64576;50.460;4.866;2023-01-06T07:25:10;4.40;;;2.50;;
75898;SDS011;64576;50.460;4.866;2023-01-06T07:27:36;6.13;;;2.78;;
75898;SDS011;64576;50.460;4.866;2023-01-06T07:30:02;3.85;;;2.08;;
75898;SDS011;64576;50.460;4.866;2023-01-06T07:32:28;4.45;;;2.38;;
75898;SDS011;64576;50.460;4.866;2023-01-06T07:34:54;3.83;;;1.75;;
75898;SDS011;64576;50.460;4.866;2023-01-06T07:37:22;3.72;;;1.77;;
75898;SDS011;64576;50.460;4.866;2023-01-06T07:39:52;3.58;;;1.90;;
75898;SDS011;64576;50.460;4.866;2023-01-06T07:42:17;7.65;;;1.90;;
75898;SDS011;64576;50.460;4.866;2023-01-06T07:44:42;4.55;;;2.25;;
75898;SDS011;64576;50.460;4.866;2023-01-06T07:47:08;4.53;;;2.50;;
75898;SDS011;64576;50.460;4.866;2023-01-06T07:49:34;5.50;;;2.28;;
75898;SDS011;64576;50.460;4.866;2023-01-06T07:51:59;4.82;;;2.35;;
75898;SDS011;64576;50.460;4.866;2023-01-06T07:54:25;6.10;;;3.08;;
75898;SDS011;64576;50.460;4.866;2023-01-06T07:56:50;4.85;;;2.33;;
75898;SDS011;64576;50.460;4.866;2023-01-06T07:59:15;5.68;;;2.13;;
75898;SDS011;64576;50.460;4.866;2023-01-06T08:01:41;5.93;;;3.05;;
75898;SDS011;64576;50.460;4.866;2023-01-06T08:04:06;6.13;;;2.47;;
75898;SDS011;64576;50.460;4.866;2023-01-06T08:06:31;5.38;;;2.70;;
75898;SDS011;64576;50.460;4.866;2023-01-06T08:08:57;5.70;;;2.90;;
75898;SDS011;64576;50.460;4.866;2023-01-06T08:11:22;4.70;;;2.38;;
75898;SDS011;64576;50.460;4.866;2023-01-06T08:13:49;6.32;;;3.15;;
75898;SDS011;64576;50.460;4.866;2023-01-06T08:16:14;8.45;;;2.10;;
75898;SDS011;64576;50.460;4.866;2023-01-06T08:18:39;4.57;;;2.63;;
75898;SDS011;64576;50.460;4.866;2023-01-06T08:21:06;4.70;;;2.42;;
75898;SDS011;64576;50.460;4.866;2023-01-06T08:23:35;4.90;;;2.20;;
75898;SDS011;64576;50.460;4.866;2023-01-06T08:26:01;8.75;;;2.67;;
75898;SDS011;64576;50.460;4.866;2023-01-06T08:28:31;5.53;;;2.22;;
75898;SDS011;64576;50.460;4.866;2023-01-06T08:30:57;5.35;;;2.50;;
75898;SDS011;64576;50.460;4.866;2023-01-06T08:33:23;4.13;;;2.30;;
75898;SDS011;64576;50.460;4.866;2023-01-06T08:35:50;5.40;;;2.25;;
75898;SDS011;64576;50.460;4.866;2023-01-06T08:38:22;3.85;;;1.90;;
75898;SDS011;64576;50.460;4.866;2023-01-06T08:40:47;4.50;;;2.40;;
75898;SDS011;64576;50.460;4.866;2023-01-06T08:43:16;4.38;;;2.05;;
75898;SDS011;64576;50.460;4.866;2023-01-06T08:45:41;4.43;;;2.30;;
75898;SDS011;64576;50.460;4.866;2023-01-06T08:48:06;5.15;;;2.33;;
75898;SDS011;64576;50.460;4.866;2023-01-06T08:50:32;5.13;;;2.08;;
75898;SDS011;64576;50.460;4.866;2023-01-06T08:52:57;6.63;;;2.28;;
75898;SDS011;64576;50.460;4.866;2023-01-06T08:55:22;6.20;;;2.20;;
75898;SDS011;64576;50.460;4.866;2023-01-06T08:57:48;4.95;;;2.20;;
75898;SDS011;64576;50.460;4.866;2023-01-06T09:00:13;4.20;;;2.08;;
75898;SDS011;64576;50.460;4.866;2023-01-06T09:02:39;8.02;;;4.55;;
75898;SDS011;64576;50.460;4.866;2023-01-06T09:05:05;5.22;;;1.88;;
75898;SDS011;64576;50.460;4.866;2023-01-06T09:07:30;2.70;;;1.63;;
75898;SDS011;64576;50.460;4.866;2023-01-06T09:09:56;3.80;;;1.73;;
75898;SDS011;64576;50.460;4.866;2023-01-06T09:12:21;4.90;;;2.25;;
75898;SDS011;64576;50.460;4.866;2023-01-06T09:14:46;4.15;;;2.10;;
75898;SDS011;64576;50.460;4.866;2023-01-06T09:17:12;4.28;;;2.22;;
75898;SDS011;64576;50.460;4.866;2023-01-06T09:19:37;4.82;;;2.42;;
75898;SDS011;64576;50.460;4.866;2023-01-06T09:22:03;5.45;;;2.60;;
75898;SDS011;64576;50.460;4.866;2023-01-06T09:24:28;6.10;;;2.47;;
75898;SDS011;64576;50.460;4.866;2023-01-06T09:26:54;5.35;;;2.83;;
75898;SDS011;64576;50.460;4.866;2023-01-06T09:29:20;6.28;;;2.80;;
75898;SDS011;64576;50.460;4.866;2023-01-06T09:31:46;5.03;;;2.45;;
75898;SDS011;64576;50.460;4.866;2023-01-06T09:34:11;6.60;;;3.20;;
75898;SDS011;64576;50.460;4.866;2023-01-06T09:36:38;5.53;;;2.75;;
75898;SDS011;64576;50.460;4.866;2023-01-06T09:39:03;5.95;;;2.72;;
75898;SDS011;64576;50.460;4.866;2023-01-06T09:44:57;4.93;;;2.53;;
75898;SDS011;64576;50.460;4.866;2023-01-06T09:47:31;6.97;;;3.92;;
75898;SDS011;64576;50.460;4.866;2023-01-06T09:50:06;4.15;;;2.03;;
75898;SDS011;64576;50.460;4.866;2023-01-06T09:52:51;5.03;;;2.95;;
75898;SDS011;64576;50.460;4.866;2023-01-06T09:57:54;6.03;;;3.25;;
75898;SDS011;64576;50.460;4.866;2023-01-06T10:00:51;4.85;;;2.83;;
75898;SDS011;64576;50.460;4.866;2023-01-06T10:03:24;5.38;;;3.00;;
75898;SDS011;64576;50.460;4.866;2023-01-06T10:22:20;4.70;;;2.67;;
75898;SDS011;64576;50.460;4.866;2023-01-06T10:31:01;7.63;;;4.20;;
75898;SDS011;64576;50.460;4.866;2023-01-06T10:33:36;9.38;;;5.00;;
75898;SDS011;64576;50.460;4.866;2023-01-06T10:36:12;6.70;;;3.75;;
75898;SDS011;64576;50.460;4.866;2023-01-06T10:38:40;6.63;;;3.70;;
75898;SDS011;64576;50.460;4.866;2023-01-06T10:41:21;6.77;;;3.93;;
75898;SDS011;64576;50.460;4.866;2023-01-06T10:43:55;6.57;;;3.35;;
75898;SDS011;64576;50.460;4.866;2023-01-06T10:46:24;5.22;;;2.58;;
75898;SDS011;64576;50.460;4.866;2023-01-06T10:48:56;5.63;;;2.85;;
75898;SDS011;64576;50.460;4.866;2023-01-06T10:51:39;4.43;;;2.28;;
75898;SDS011;64576;50.460;4.866;2023-01-06T10:54:13;4.57;;;2.28;;
75898;SDS011;64576;50.460;4.866;2023-01-06T10:56:42;3.83;;;2.05;;
75898;SDS011;64576;50.460;4.866;2023-01-06T10:59:12;7.28;;;4.00;;
75898;SDS011;64576;50.460;4.866;2023-01-06T11:01:48;4.72;;;2.65;;
75898;SDS011;64576;50.460;4.866;2023-01-06T11:04:15;4.72;;;2.38;;
75898;SDS011;64576;50.460;4.866;2023-01-06T11:09:31;5.03;;;2.65;;
75898;SDS011;64576;50.460;4.866;2023-01-06T11:12:19;5.07;;;2.30;;
75898;SDS011;64576;50.460;4.866;2023-01-06T11:15:00;4.18;;;2.08;;
75898;SDS011;64576;50.460;4.866;2023-01-06T11:17:29;5.10;;;2.00;;
75898;SDS011;64576;50.460;4.866;2023-01-06T11:20:06;4.80;;;1.85;;
75898;SDS011;64576;50.460;4.866;2023-01-06T11:22:41;2.78;;;1.63;;
75898;SDS011;64576;50.460;4.866;2023-01-06T11:28:27;5.97;;;2.33;;
75898;SDS011;64576;50.460;4.866;2023-01-06T11:30:39;3.90;;;1.73;;
75898;SDS011;64576;50.460;4.866;2023-01-06T11:33:25;3.65;;;1.80;;
75898;SDS011;64576;50.460;4.866;2023-01-06T11:35:54;2.50;;;1.35;;
75898;SDS011;64576;50.460;4.866;2023-01-06T11:38:21;3.67;;;1.83;;
75898;SDS011;64576;50.460;4.866;2023-01-06T11:40:48;4.25;;;2.13;;
75898;SDS011;64576;50.460;4.866;2023-01-06T11:43:16;4.38;;;2.20;;
75898;SDS011;64576;50.460;4.866;2023-01-06T11:46:07;4.13;;;1.95;;
75898;SDS011;64576;50.460;4.866;2023-01-06T11:48:47;3.75;;;1.48;;
75898;SDS011;64576;50.460;4.866;2023-01-06T11:51:37;3.85;;;1.83;;
75898;SDS011;64576;50.460;4.866;2023-01-06T11:56:58;3.22;;;1.80;;
75898;SDS011;64576;50.460;4.866;2023-01-06T11:59:26;3.58;;;1.70;;
75898;SDS011;64576;50.460;4.866;2023-01-06T12:02:00;3.22;;;1.80;;
75898;SDS011;64576;50.460;4.866;2023-01-06T12:04:40;6.32;;;2.17;;
75898;SDS011;64576;50.460;4.866;2023-01-06T12:10:03;4.18;;;1.88;;
75898;SDS011;64576;50.460;4.866;2023-01-06T12:12:39;2.95;;;1.63;;
75898;SDS011;64576;50.460;4.866;2023-01-06T12:15:09;3.05;;;1.60;;
75898;SDS011;64576;50.460;4.866;2023-01-06T12:17:46;2.33;;;1.10;;
75898;SDS011;64576;50.460;4.866;2023-01-06T12:20:31;4.10;;;1.90;;
75898;SDS011;64576;50.460;4.866;2023-01-06T12:23:04;2.33;;;1.48;;
75898;SDS011;64576;50.460;4.866;2023-01-06T12:28:13;2.85;;;1.40;;
75898;SDS011;64576;50.460;4.866;2023-01-06T12:30:48;3.67;;;1.63;;
75898;SDS011;64576;50.460;4.866;2023-01-06T12:33:29;3.50;;;1.48;;
75898;SDS011;64576;50.460;4.866;2023-01-06T12:38:53;4.32;;;1.80;;
75898;SDS011;64576;50.460;4.866;2023-01-06T12:44:19;3.88;;;1.40;;
75898;SDS011;64576;50.460;4.866;2023-01-06T12:47:21;2.88;;;1.20;;
75898;SDS011;64576;50.460;4.866;2023-01-06T12:52:40;4.32;;;1.52;;
75898;SDS011;64576;50.460;4.866;2023-01-06T12:56:04;3.67;;;1.50;;
75898;SDS011;64576;50.460;4.866;2023-01-06T13:10:20;3.50;;;1.52;;
75898;SDS011;64576;50.460;4.866;2023-01-06T13:15:54;4.43;;;1.48;;
75898;SDS011;64576;50.460;4.866;2023-01-06T13:21:06;3.22;;;1.65;;
75898;SDS011;64576;50.460;4.866;2023-01-06T13:40:58;2.88;;;2.20;;
75898;SDS011;64576;50.460;4.866;2023-01-06T13:43:31;3.28;;;1.70;;
75898;SDS011;64576;50.460;4.866;2023-01-06T13:46:00;4.05;;;1.90;;
75898;SDS011;64576;50.460;4.866;2023-01-06T13:48:40;5.68;;;2.15;;
75898;SDS011;64576;50.460;4.866;2023-01-06T13:51:11;3.78;;;1.75;;
75898;SDS011;64576;50.460;4.866;2023-01-06T13:53:43;4.22;;;1.50;;
75898;SDS011;64576;50.460;4.866;2023-01-06T13:58:39;4.03;;;2.08;;
75898;SDS011;64576;50.460;4.866;2023-01-06T14:03:37;3.30;;;1.60;;
75898;SDS011;64576;50.460;4.866;2023-01-06T14:06:04;3.53;;;1.90;;
75898;SDS011;64576;50.460;4.866;2023-01-06T14:08:56;4.10;;;1.88;;
75898;SDS011;64576;50.460;4.866;2023-01-06T14:11:29;4.22;;;2.13;;
75898;SDS011;64576;50.460;4.866;2023-01-06T14:14:16;4.88;;;2.30;;
75898;SDS011;64576;50.460;4.866;2023-01-06T14:16:52;4.55;;;2.30;;
75898;SDS011;64576;50.460;4.866;2023-01-06T14:19:20;5.90;;;2.50;;
75898;SDS011;64576;50.460;4.866;2023-01-06T14:21:49;4.18;;;2.25;;
75898;SDS011;64576;50.460;4.866;2023-01-06T14:24:28;4.50;;;2.33;;
75898;SDS011;64576;50.460;4.866;2023-01-06T14:32:07;4.32;;;2.30;;
75898;SDS011;64576;50.460;4.866;2023-01-06T14:34:43;6.15;;;2.08;;
75898;SDS011;64576;50.460;4.866;2023-01-06T14:37:24;3.50;;;1.88;;
75898;SDS011;64576;50.460;4.866;2023-01-06T14:40:03;3.92;;;2.20;;
75898;SDS011;64576;50.460;4.866;2023-01-06T14:42:37;4.95;;;2.30;;
75898;SDS011;64576;50.460;4.866;2023-01-06T14:45:13;5.10;;;2.50;;
75898;SDS011;64576;50.460;4.866;2023-01-06T14:47:48;3.78;;;2.13;;
75898;SDS011;64576;50.460;4.866;2023-01-06T14:50:16;3.28;;;1.70;;
75898;SDS011;64576;50.460;4.866;2023-01-06T14:52:53;3.40;;;1.80;;
75898;SDS011;64576;50.460;4.866;2023-01-06T14:55:28;3.67;;;1.95;;
75898;SDS011;64576;50.460;4.866;2023-01-06T14:58:00;3.78;;;2.08;;
75898;SDS011;64576;50.460;4.866;2023-01-06T15:00:26;4.57;;;2.30;;
75898;SDS011;64576;50.460;4.866;2023-01-06T15:05:26;4.45;;;2.50;;
75898;SDS011;64576;50.460;4.866;2023-01-06T15:10:36;5.65;;;2.80;;
75898;SDS011;64576;50.460;4.866;2023-01-06T15:16:05;4.28;;;2.70;;
75898;SDS011;64576;50.460;4.866;2023-01-06T15:18:33;4.53;;;2.67;;
75898;SDS011;64576;50.460;4.866;2023-01-06T15:21:01;5.15;;;2.30;;
75898;SDS011;64576;50.460;4.866;2023-01-06T15:23:28;4.93;;;2.85;;
75898;SDS011;64576;50.460;4.866;2023-01-06T15:25:55;5.03;;;3.00;;
75898;SDS011;64576;50.460;4.866;2023-01-06T15:28:23;9.40;;;4.03;;
75898;SDS011;64576;50.460;4.866;2023-01-06T15:30:50;6.43;;;2.90;;
75898;SDS011;64576;50.460;4.866;2023-01-06T15:33:16;7.05;;;3.50;;
75898;SDS011;64576;50.460;4.866;2023-01-06T15:35:44;5.30;;;3.13;;
75898;SDS011;64576;50.460;4.866;2023-01-06T15:40:46;5.35;;;2.95;;
75898;SDS011;64576;50.460;4.866;2023-01-06T15:43:14;6.05;;;2.80;;
75898;SDS011;64576;50.460;4.866;2023-01-06T15:45:54;5.50;;;3.45;;
75898;SDS011;64576;50.460;4.866;2023-01-06T15:48:32;7.13;;;3.95;;
75898;SDS011;64576;50.460;4.866;2023-01-06T15:51:07;7.15;;;4.45;;
75898;SDS011;64576;50.460;4.866;2023-01-06T15:53:39;6.72;;;4.30;;
75898;SDS011;64576;50.460;4.866;2023-01-06T15:56:05;8.07;;;4.55;;
75898;SDS011;64576;50.460;4.866;2023-01-06T15:58:41;9.95;;;4.88;;
75898;SDS011;64576;50.460;4.866;2023-01-06T16:01:10;5.82;;;3.70;;
75898;SDS011;64576;50.460;4.866;2023-01-06T16:03:45;7.00;;;3.70;;
75898;SDS011;64576;50.460;4.866;2023-01-06T16:06:14;6.27;;;3.97;;
75898;SDS011;64576;50.460;4.866;2023-01-06T16:12:04;6.97;;;3.85;;
75898;SDS011;64576;50.460;4.866;2023-01-06T16:14:36;6.43;;;4.03;;
75898;SDS011;64576;50.460;4.866;2023-01-06T16:17:25;5.32;;;3.25;;
75898;SDS011;64576;50.460;4.866;2023-01-06T16:20:00;7.90;;;4.25;;
75898;SDS011;64576;50.460;4.866;2023-01-06T16:22:34;6.85;;;3.85;;
75898;SDS011;64576;50.460;4.866;2023-01-06T16:27:55;6.28;;;4.00;;
75898;SDS011;64576;50.460;4.866;2023-01-06T16:30:24;7.70;;;4.20;;
75898;SDS011;64576;50.460;4.866;2023-01-06T16:32:51;9.20;;;4.80;;
75898;SDS011;64576;50.460;4.866;2023-01-06T16:35:23;7.50;;;4.70;;
75898;SDS011;64576;50.460;4.866;2023-01-06T16:37:56;9.35;;;5.57;;
75898;SDS011;64576;50.460;4.866;2023-01-06T16:40:25;8.18;;;4.90;;
75898;SDS011;64576;50.460;4.866;2023-01-06T16:42:58;8.43;;;6.13;;
75898;SDS011;64576;50.460;4.866;2023-01-06T16:47:56;7.25;;;3.90;;
75898;SDS011;64576;50.460;4.866;2023-01-06T16:50:32;8.50;;;4.72;;
75898;SDS011;64576;50.460;4.866;2023-01-06T16:53:22;8.15;;;5.57;;
75898;SDS011;64576;50.460;4.866;2023-01-06T16:55:55;6.80;;;4.80;;
75898;SDS011;64576;50.460;4.866;2023-01-06T16:58:23;8.93;;;5.47;;
75898;SDS011;64576;50.460;4.866;2023-01-06T17:00:50;7.68;;;5.13;;
75898;SDS011;64576;50.460;4.866;2023-01-06T17:03:22;8.93;;;5.18;;
75898;SDS011;64576;50.460;4.866;2023-01-06T17:05:51;8.57;;;5.13;;
75898;SDS011;64576;50.460;4.866;2023-01-06T17:08:26;8.52;;;4.88;;
75898;SDS011;64576;50.460;4.866;2023-01-06T17:10:55;8.30;;;5.32;;
75898;SDS011;64576;50.460;4.866;2023-01-06T17:13:24;8.65;;;5.88;;
75898;SDS011;64576;50.460;4.866;2023-01-06T17:16:20;8.05;;;5.05;;
75898;SDS011;64576;50.460;4.866;2023-01-06T17:19:33;7.50;;;5.18;;
75898;SDS011;64576;50.460;4.866;2023-01-06T17:21:43;9.43;;;4.70;;
75898;SDS011;64576;50.460;4.866;2023-01-06T17:24:19;7.45;;;4.57;;